Ilyas Araz — TCAS9 — position and weather

sailwx.info

Track history (hours):
 
Tides and Currents Weather Stations Pressure Air Temp Water Temp Dewpoint Dewpoint Depression Visibility Wind Speed Wind Dir Waves Ship Positions

Ilyas Araz

Last reported at 2017-Oct-17 05:22 UTC. Time now 2017-Oct-19 12:46 UTC.
Position N 40°54' E 029°06'.

Length 64 m; draft 5.4 m.

Type: Cargo ship. MMSI: 271002108.

Date/timePositionNaut miles runAvg speedWind from/ knotsBaromVisibWave heightAir tempDewpointWater temp
2017-Oct-17 05:22N 40°54' E 029°06'3 8.4
2017-Oct-17 05:00N 40°53' E 029°10'1 1.1
2017-Oct-17 03:48N 40°53' E 029°11'0 0.0
2017-Oct-17 03:06N 40°53' E 029°11'0 0.0
2017-Oct-17 02:54N 40°53' E 029°11'0 0.1
2017-Oct-17 02:24N 40°53' E 029°11'0 0.0
2017-Oct-17 01:57N 40°53' E 029°11'3 6.8
2017-Oct-17 01:30N 40°50' E 029°09'  
2017-Oct-08 08:04N 40°54' E 029°06'1 8.6
2017-Oct-08 07:55N 40°54' E 029°08'3 7.6
2017-Oct-08 07:30N 40°53' E 029°12'0 0.2
2017-Oct-08 06:49N 40°53' E 029°12'0 0.0
2017-Oct-08 06:25N 40°53' E 029°12'0 0.0
2017-Oct-08 05:55N 40°53' E 029°12'0 0.0
2017-Oct-08 05:25N 40°53' E 029°12'0 0.1
2017-Oct-08 05:00N 40°53' E 029°12'3 6.8
2017-Oct-08 04:30N 40°50' E 029°09'  
Track history (hours):
 
Tides and Currents Weather Stations Pressure Air Temp Water Temp Dewpoint Dewpoint Depression Visibility Wind Speed Wind Dir Waves Ship Positions

Ilyas Araz

Last reported at 2017-Oct-17 05:22 UTC. Time now 2017-Oct-19 12:46 UTC.
Position N 40°54' E 029°06'.

Length 64 m; draft 5.4 m.

Type: Cargo ship. MMSI: 271002108.

Date/timePositionNaut miles runAvg speedWind from/ knotsBaromVisibWave heightAir tempDewpointWater temp
2017-Oct-17 05:22N 40°54' E 029°06'3 8.4
2017-Oct-17 05:00N 40°53' E 029°10'1 1.1
2017-Oct-17 03:48N 40°53' E 029°11'0 0.0
2017-Oct-17 03:06N 40°53' E 029°11'0 0.0
2017-Oct-17 02:54N 40°53' E 029°11'0 0.1
2017-Oct-17 02:24N 40°53' E 029°11'0 0.0
2017-Oct-17 01:57N 40°53' E 029°11'3 6.8
2017-Oct-17 01:30N 40°50' E 029°09'  
2017-Oct-08 08:04N 40°54' E 029°06'1 8.6
2017-Oct-08 07:55N 40°54' E 029°08'3 7.6
2017-Oct-08 07:30N 40°53' E 029°12'0 0.2
2017-Oct-08 06:49N 40°53' E 029°12'0 0.0
2017-Oct-08 06:25N 40°53' E 029°12'0 0.0
2017-Oct-08 05:55N 40°53' E 029°12'0 0.0
2017-Oct-08 05:25N 40°53' E 029°12'0 0.1
2017-Oct-08 05:00N 40°53' E 029°12'3 6.8
2017-Oct-08 04:30N 40°50' E 029°09'  

Dump ship's entire track history